createdAt,value
2019-05-06T00:01:54.179Z,2.95
2019-05-06T00:04:24.691Z,3.10
2019-05-06T00:06:54.995Z,2.12
2019-05-06T00:09:26.909Z,2.72
2019-05-06T00:11:56.389Z,2.83
2019-05-06T00:14:25.961Z,3.10
2019-05-06T00:16:58.547Z,3.33
2019-05-06T00:19:29.738Z,2.77
2019-05-06T00:21:59.181Z,2.45
2019-05-06T00:24:34.819Z,2.75
2019-05-06T00:27:18.365Z,2.33
2019-05-06T00:29:47.907Z,2.22
2019-05-06T00:32:21.509Z,3.67
2019-05-06T00:34:51.039Z,1.95
2019-05-06T00:37:24.075Z,4.53
2019-05-06T00:40:04.630Z,2.40
2019-05-06T00:42:36.797Z,4.22
2019-05-06T00:45:07.890Z,3.52
2019-05-06T00:47:37.620Z,2.45
2019-05-06T00:50:08.147Z,2.80
2019-05-06T00:52:38.018Z,3.55
2019-05-06T00:55:07.856Z,2.40
2019-05-06T00:57:46.726Z,2.77
2019-05-06T01:00:24.468Z,3.58
2019-05-06T01:02:54.382Z,3.87
2019-05-06T01:05:24.517Z,2.17
2019-05-06T01:07:54.900Z,2.50
2019-05-06T01:10:24.935Z,2.35
2019-05-06T01:13:06.382Z,1.47
2019-05-06T01:15:35.844Z,3.35
2019-05-06T01:18:06.168Z,1.80
2019-05-06T01:20:35.719Z,1.98
2019-05-06T01:23:05.235Z,2.08
2019-05-06T01:25:37.736Z,3.40
2019-05-06T01:28:07.409Z,1.67
2019-05-06T01:30:40.036Z,3.30
2019-05-06T01:33:10.917Z,4.28
2019-05-06T01:35:44.364Z,1.80
2019-05-06T01:38:28.872Z,3.27
2019-05-06T01:41:26.477Z,1.90
2019-05-06T01:43:56.116Z,2.12
2019-05-06T01:46:25.922Z,2.17
2019-05-06T01:48:55.522Z,3.52
2019-05-06T01:51:25.120Z,2.27
2019-05-06T01:53:54.720Z,2.08
2019-05-06T01:56:24.319Z,1.50
2019-05-06T01:58:53.845Z,1.95
2019-05-06T02:01:25.121Z,2.45
2019-05-06T02:03:54.730Z,2.67
2019-05-06T02:06:24.951Z,2.10
2019-05-06T02:08:55.103Z,2.85
2019-05-06T02:11:24.692Z,1.70
2019-05-06T02:13:54.194Z,2.70
2019-05-06T02:16:24.158Z,2.30
2019-05-06T02:18:54.164Z,2.85
2019-05-06T02:21:43.697Z,1.67
2019-05-06T02:24:24.204Z,1.98
2019-05-06T02:26:54.216Z,1.85
2019-05-06T02:29:26.316Z,1.40
2019-05-06T02:32:31.509Z,6.17
2019-05-06T02:35:30.692Z,2.02
2019-05-06T02:38:07.539Z,2.25
2019-05-06T02:40:37.426Z,2.05
2019-05-06T02:43:06.992Z,2.33
2019-05-06T02:45:36.839Z,1.27
2019-05-06T02:48:13.777Z,1.77
2019-05-06T02:50:59.059Z,2.80
2019-05-06T02:53:28.591Z,1.85
2019-05-06T02:55:58.095Z,1.47
2019-05-06T02:58:27.580Z,1.87
2019-05-06T03:00:59.199Z,2.37
2019-05-06T03:03:28.647Z,1.90
2019-05-06T03:05:58.087Z,1.82
2019-05-06T03:08:32.699Z,2.25
2019-05-06T03:11:04.303Z,1.62
2019-05-06T03:13:34.566Z,1.67
2019-05-06T03:16:05.821Z,1.30
2019-05-06T03:18:35.633Z,1.42
2019-05-06T03:21:16.906Z,3.17
2019-05-06T03:23:53.964Z,2.17
2019-05-06T03:26:23.555Z,1.60
2019-05-06T03:28:56.310Z,2.25
2019-05-06T03:31:26.743Z,2.10
2019-05-06T03:34:22.195Z,1.12
2019-05-06T03:36:34.387Z,1.70
2019-05-06T03:38:59.217Z,1.40
2019-05-06T03:41:28.742Z,2.33
2019-05-06T03:43:58.410Z,3.62
2019-05-06T03:46:46.100Z,3.58
2019-05-06T03:49:15.598Z,2.02
2019-05-06T03:51:48.781Z,2.40
2019-05-06T03:54:19.002Z,1.62
2019-05-06T03:56:50.294Z,2.75
2019-05-06T03:59:23.397Z,1.85
2019-05-06T04:01:54.917Z,1.52
2019-05-06T04:04:24.417Z,1.82
2019-05-06T04:06:54.181Z,3.87
2019-05-06T04:09:25.620Z,1.75
2019-05-06T04:11:55.789Z,1.20
2019-05-06T04:14:25.939Z,2.35
2019-05-06T04:17:03.483Z,2.45
2019-05-06T04:19:45.509Z,2.12
2019-05-06T04:22:27.603Z,1.57
2019-05-06T04:25:06.113Z,1.77
2019-05-06T04:27:48.237Z,1.02
2019-05-06T04:30:18.628Z,1.70
2019-05-06T04:32:48.379Z,1.50
2019-05-06T04:35:18.245Z,2.40
2019-05-06T04:37:47.944Z,2.27
2019-05-06T04:40:17.878Z,1.57
2019-05-06T04:42:47.851Z,1.72
2019-05-06T04:45:17.789Z,1.55
2019-05-06T04:47:47.428Z,2.27
2019-05-06T04:50:17.089Z,2.52
2019-05-06T04:52:50.347Z,2.00
2019-05-06T04:55:23.091Z,2.65
2019-05-06T04:57:53.575Z,1.87
2019-05-06T05:00:23.488Z,1.90
2019-05-06T05:02:54.983Z,2.95
2019-05-06T05:05:24.398Z,1.57
2019-05-06T05:07:54.187Z,1.70
2019-05-06T05:10:27.819Z,1.42
2019-05-06T05:13:08.659Z,1.55
2019-05-06T05:16:03.266Z,1.70
2019-05-06T05:18:45.653Z,2.65
2019-05-06T05:21:15.328Z,2.17
2019-05-06T05:23:45.811Z,1.75
2019-05-06T05:26:15.606Z,2.17
2019-05-06T05:28:48.228Z,2.05
2019-05-06T05:31:17.911Z,3.60
2019-05-06T05:33:47.485Z,1.35
2019-05-06T05:36:17.406Z,2.90
2019-05-06T05:38:47.140Z,1.60
2019-05-06T05:41:17.071Z,2.35
2019-05-06T05:44:22.711Z,3.52
2019-05-06T05:46:52.530Z,2.50
2019-05-06T05:49:32.457Z,1.90
2019-05-06T05:52:03.706Z,4.05
2019-05-06T05:54:33.353Z,3.08
2019-05-06T05:57:03.382Z,2.08
2019-05-06T05:59:33.160Z,1.75
2019-05-06T06:02:04.102Z,2.25
2019-05-06T06:04:33.929Z,2.67
2019-05-06T06:07:03.390Z,4.37
2019-05-06T06:09:43.621Z,2.10
2019-05-06T06:12:13.233Z,2.65
2019-05-06T06:14:55.765Z,2.35
2019-05-06T06:17:45.261Z,3.08
2019-05-06T06:20:32.783Z,2.75
2019-05-06T06:23:09.849Z,3.20
2019-05-06T06:25:42.394Z,3.70
2019-05-06T06:28:12.037Z,3.50
2019-05-06T06:30:52.038Z,4.58
2019-05-06T06:33:22.320Z,5.45
2019-05-06T06:36:02.848Z,3.15
2019-05-06T06:38:54.313Z,6.03
2019-05-06T06:41:24.206Z,5.55
2019-05-06T06:43:57.962Z,18.42
2019-05-06T06:46:27.402Z,16.00
2019-05-06T06:48:57.028Z,7.10
2019-05-06T06:51:26.486Z,7.37
2019-05-06T06:53:57.524Z,10.10
2019-05-06T06:56:42.415Z,16.55
2019-05-06T06:59:22.217Z,11.63
2019-05-06T07:02:17.880Z,12.88
2019-05-06T07:04:54.066Z,16.52
2019-05-06T07:07:40.176Z,12.20
2019-05-06T07:09:59.030Z,10.88
2019-05-06T07:12:28.703Z,12.78
2019-05-06T07:15:02.243Z,13.40
2019-05-06T07:17:32.772Z,14.63
2019-05-06T07:20:06.080Z,12.68
2019-05-06T07:22:39.076Z,11.95
2019-05-06T07:25:12.689Z,12.03
2019-05-06T07:27:45.047Z,13.40
2019-05-06T07:30:15.341Z,9.55
2019-05-06T07:32:44.822Z,9.55
2019-05-06T07:35:14.515Z,7.53
2019-05-06T07:37:43.987Z,8.13
2019-05-06T07:40:22.049Z,6.85
2019-05-06T07:42:53.245Z,5.55
2019-05-06T07:45:29.619Z,7.12
2019-05-06T07:48:03.613Z,7.70
2019-05-06T07:50:33.448Z,4.85
2019-05-06T07:53:08.529Z,5.70
2019-05-06T07:55:39.219Z,5.67
2019-05-06T07:58:08.746Z,8.60
2019-05-06T08:00:38.404Z,4.62
2019-05-06T08:03:07.884Z,5.08
2019-05-06T08:05:54.723Z,4.30
2019-05-06T08:08:14.415Z,5.00
2019-05-06T08:10:43.849Z,5.47
2019-05-06T08:13:13.368Z,8.18
2019-05-06T08:15:42.968Z,3.27
2019-05-06T08:18:23.017Z,5.78
2019-05-06T08:20:52.603Z,6.45
2019-05-06T08:23:28.488Z,3.60
2019-05-06T08:26:10.114Z,3.52
2019-05-06T08:28:38.574Z,4.47
2019-05-06T08:31:02.405Z,4.17
2019-05-06T08:33:32.716Z,4.20
2019-05-06T08:36:11.681Z,5.72
2019-05-06T08:38:53.256Z,6.15
2019-05-06T08:41:22.870Z,4.00
2019-05-06T08:43:52.973Z,6.42
2019-05-06T08:46:23.427Z,3.22
2019-05-06T08:48:53.302Z,2.55
2019-05-06T08:51:42.632Z,3.55
2019-05-06T08:54:18.210Z,3.60
2019-05-06T08:56:47.826Z,3.25
2019-05-06T08:59:17.287Z,5.97
2019-05-06T09:01:49.029Z,2.33
2019-05-06T09:04:18.510Z,3.60
2019-05-06T09:06:47.981Z,2.20
2019-05-06T09:09:17.435Z,3.12
2019-05-06T09:11:46.976Z,5.53
2019-05-06T09:14:16.464Z,3.62
2019-05-06T09:16:45.966Z,4.72
2019-05-06T09:19:15.455Z,4.33
2019-05-06T09:21:46.389Z,3.90
2019-05-06T09:24:16.035Z,4.50
2019-05-06T09:27:12.324Z,2.55
2019-05-06T09:29:52.211Z,1.60
2019-05-06T09:32:36.049Z,3.83
2019-05-06T09:35:04.086Z,1.90
2019-05-06T09:37:33.660Z,4.47
2019-05-06T09:40:03.329Z,2.30
2019-05-06T09:42:32.741Z,1.47
2019-05-06T09:45:02.503Z,2.67
2019-05-06T09:47:53.033Z,2.35
2019-05-06T09:50:37.620Z,2.45
2019-05-06T09:53:09.317Z,4.10
2019-05-06T09:56:03.950Z,2.65
2019-05-06T09:58:34.642Z,1.90
2019-05-06T10:01:04.647Z,2.45
2019-05-06T10:03:34.175Z,3.12
2019-05-06T10:06:03.702Z,2.08
2019-05-06T10:08:33.160Z,1.75
2019-05-06T10:11:03.324Z,3.33
2019-05-06T10:13:33.010Z,2.12
2019-05-06T10:16:03.121Z,1.85
2019-05-06T10:18:32.701Z,3.00
2019-05-06T10:21:02.426Z,3.72
2019-05-06T10:23:32.762Z,2.30
2019-05-06T10:26:04.529Z,2.87
2019-05-06T10:28:52.362Z,1.52
2019-05-06T10:31:22.039Z,3.52
2019-05-06T10:34:09.444Z,2.77
2019-05-06T10:36:48.158Z,4.12
2019-05-06T10:39:20.362Z,2.27
2019-05-06T10:41:56.002Z,1.98
2019-05-06T10:44:38.851Z,3.58
2019-05-06T10:47:08.378Z,3.25
2019-05-06T10:49:37.951Z,2.33
2019-05-06T10:52:27.443Z,2.25
2019-05-06T10:54:56.985Z,2.72
2019-05-06T10:57:36.530Z,3.52
2019-05-06T11:00:07.693Z,1.37
2019-05-06T11:02:59.437Z,1.25
2019-05-06T11:05:29.094Z,1.87
2019-05-06T11:07:58.755Z,2.25
2019-05-06T11:10:35.511Z,1.75
2019-05-06T11:12:59.605Z,1.80
2019-05-06T11:15:29.093Z,1.85
2019-05-06T11:17:58.691Z,2.65
2019-05-06T11:20:28.186Z,1.32
2019-05-06T11:22:57.697Z,1.90
2019-05-06T11:25:27.239Z,2.85
2019-05-06T11:27:56.724Z,4.70
2019-05-06T11:30:45.214Z,1.27
2019-05-06T11:33:42.636Z,2.25
2019-05-06T11:36:19.833Z,2.77
2019-05-06T11:38:49.360Z,1.92
2019-05-06T11:41:18.938Z,1.27
2019-05-06T11:43:48.494Z,2.05
2019-05-06T11:46:17.997Z,2.17
2019-05-06T11:48:47.506Z,1.32
2019-05-06T11:51:19.706Z,6.12
2019-05-06T11:53:49.189Z,3.10
2019-05-06T11:56:18.721Z,1.55
2019-05-06T11:58:53.338Z,2.10
2019-05-06T12:01:33.003Z,2.42
2019-05-06T12:04:02.977Z,1.55
2019-05-06T12:06:33.154Z,2.17
2019-05-06T12:09:06.419Z,2.75
2019-05-06T12:11:35.122Z,2.42
2019-05-06T12:14:04.760Z,3.05
2019-05-06T12:16:34.470Z,1.90
2019-05-06T12:19:04.048Z,2.65
2019-05-06T12:21:33.543Z,2.62
2019-05-06T12:24:03.182Z,3.05
2019-05-06T12:26:32.721Z,2.67
2019-05-06T12:29:02.441Z,2.87
2019-05-06T12:31:32.902Z,3.50
2019-05-06T12:34:02.900Z,3.15
2019-05-06T12:36:32.828Z,5.22
2019-05-06T12:39:24.878Z,1.82
2019-05-06T12:42:16.025Z,3.10
2019-05-06T12:44:53.621Z,2.17
2019-05-06T12:47:42.703Z,4.28
2019-05-06T12:50:12.466Z,3.50
2019-05-06T12:52:44.149Z,5.40
2019-05-06T12:55:20.713Z,2.87
2019-05-06T12:57:44.898Z,2.47
2019-05-06T13:00:15.682Z,2.87
2019-05-06T13:02:45.166Z,3.02
2019-05-06T13:05:15.289Z,2.83
2019-05-06T13:07:46.684Z,2.40
2019-05-06T13:10:22.780Z,3.15
2019-05-06T13:13:16.507Z,4.08
2019-05-06T13:15:46.100Z,4.22
2019-05-06T13:18:15.747Z,2.75
2019-05-06T13:20:49.818Z,2.58
2019-05-06T13:23:39.478Z,4.22
2019-05-06T13:26:09.203Z,2.75
2019-05-06T13:28:42.589Z,3.05
2019-05-06T13:31:20.003Z,3.85
2019-05-06T13:33:54.875Z,3.90
2019-05-06T13:36:24.710Z,2.87
2019-05-06T13:39:09.535Z,3.25
2019-05-06T13:41:25.638Z,3.70
2019-05-06T13:44:23.298Z,3.25
2019-05-06T13:46:54.640Z,3.12
2019-05-06T13:49:49.083Z,3.02
2019-05-06T13:52:22.926Z,2.92
2019-05-06T13:54:53.046Z,2.80
2019-05-06T13:57:22.882Z,3.12
2019-05-06T13:59:53.233Z,3.15
2019-05-06T14:02:45.021Z,3.22
2019-05-06T14:05:14.789Z,2.72
2019-05-06T14:07:44.377Z,3.12
2019-05-06T14:10:15.309Z,3.22
2019-05-06T14:12:44.834Z,3.17
2019-05-06T14:15:15.156Z,3.40
2019-05-06T14:17:44.705Z,2.60
2019-05-06T14:20:14.784Z,3.15
2019-05-06T14:22:44.273Z,2.80
2019-05-06T14:25:37.945Z,3.12
2019-05-06T14:28:32.527Z,3.15
2019-05-06T14:31:05.981Z,3.90
2019-05-06T14:33:35.436Z,2.98
2019-05-06T14:36:04.967Z,2.17
2019-05-06T14:38:34.469Z,3.12
2019-05-06T14:41:12.869Z,2.02
2019-05-06T14:43:42.831Z,2.98
2019-05-06T14:46:12.634Z,3.85
2019-05-06T14:48:43.658Z,2.92
2019-05-06T14:51:13.370Z,1.90
2019-05-06T14:53:43.680Z,3.02
2019-05-06T14:56:32.408Z,2.35
2019-05-06T14:59:06.332Z,2.15
2019-05-06T15:01:38.006Z,3.35
2019-05-06T15:04:07.455Z,3.52
2019-05-06T15:06:37.165Z,4.67
2019-05-06T15:09:09.348Z,2.92
2019-05-06T15:11:38.826Z,2.83
2019-05-06T15:14:08.537Z,2.27
2019-05-06T15:16:38.094Z,3.12
2019-05-06T15:19:07.563Z,4.15
2019-05-06T15:21:38.867Z,3.77
2019-05-06T15:24:08.438Z,3.17
2019-05-06T15:26:37.970Z,2.92
2019-05-06T15:29:07.553Z,2.60
2019-05-06T15:31:52.698Z,3.55
2019-05-06T15:34:27.073Z,2.98
2019-05-06T15:37:06.061Z,2.42
2019-05-06T15:39:35.661Z,2.60
2019-05-06T15:42:05.236Z,3.37
2019-05-06T15:44:35.485Z,2.00
2019-05-06T15:47:05.172Z,2.25
2019-05-06T15:49:34.738Z,3.12
2019-05-06T15:52:04.212Z,2.15
2019-05-06T15:54:34.169Z,3.72
2019-05-06T15:57:03.741Z,3.95
2019-05-06T15:59:33.707Z,3.47
2019-05-06T16:02:03.354Z,3.20
2019-05-06T16:04:32.941Z,2.33
2019-05-06T16:07:02.965Z,3.67
2019-05-06T16:09:33.031Z,3.70
2019-05-06T16:12:03.024Z,4.50
2019-05-06T16:14:34.847Z,5.83
2019-05-06T16:17:04.241Z,7.05
2019-05-06T16:19:33.997Z,6.62
2019-05-06T16:22:04.235Z,4.15
2019-05-06T16:24:42.833Z,6.70
2019-05-06T16:27:12.526Z,8.30
2019-05-06T16:29:42.941Z,5.47
2019-05-06T16:32:12.929Z,5.17
2019-05-06T16:34:43.150Z,2.42
2019-05-06T16:37:13.523Z,6.75
2019-05-06T16:39:43.069Z,2.98
2019-05-06T16:42:13.095Z,3.77
2019-05-06T16:44:45.174Z,5.25
2019-05-06T16:47:32.939Z,6.47
2019-05-06T16:50:02.516Z,4.25
2019-05-06T16:52:33.352Z,6.80
2019-05-06T16:55:03.559Z,8.43
2019-05-06T16:57:33.379Z,5.20
2019-05-06T17:00:03.888Z,10.43
2019-05-06T17:02:56.489Z,5.92
2019-05-06T17:05:33.673Z,8.00
2019-05-06T17:08:03.432Z,6.30
2019-05-06T17:10:32.952Z,3.83
2019-05-06T17:13:03.055Z,7.60
2019-05-06T17:15:32.947Z,6.30
2019-05-06T17:18:03.259Z,11.88
2019-05-06T17:20:33.046Z,6.37
2019-05-06T17:23:03.092Z,4.75
2019-05-06T17:25:33.721Z,6.35
2019-05-06T17:28:25.517Z,7.05
2019-05-06T17:31:13.236Z,6.45
2019-05-06T17:33:43.692Z,6.28
2019-05-06T17:36:15.002Z,6.30
2019-05-06T17:38:46.980Z,5.08
2019-05-06T17:41:16.656Z,4.22
2019-05-06T17:43:46.203Z,5.20
2019-05-06T17:46:17.855Z,4.95
2019-05-06T17:49:09.316Z,5.05
2019-05-06T17:52:02.829Z,5.50
2019-05-06T17:54:32.625Z,5.30
2019-05-06T17:57:04.432Z,8.40
2019-05-06T17:59:37.157Z,7.37
2019-05-06T18:02:08.682Z,9.18
2019-05-06T18:04:38.303Z,8.58
2019-05-06T18:07:07.867Z,5.05
2019-05-06T18:09:37.426Z,8.68
2019-05-06T18:12:08.075Z,6.72
2019-05-06T18:14:37.551Z,5.78
2019-05-06T18:17:07.059Z,6.12
2019-05-06T18:19:36.595Z,6.20
2019-05-06T18:22:06.201Z,9.13
2019-05-06T18:24:35.698Z,6.25
2019-05-06T18:27:05.447Z,5.90
2019-05-06T18:29:34.929Z,7.08
2019-05-06T18:32:04.559Z,5.75
2019-05-06T18:34:34.063Z,5.28
2019-05-06T18:37:03.770Z,4.85
2019-05-06T18:39:34.055Z,5.05
2019-05-06T18:42:15.455Z,4.58
2019-05-06T18:44:35.021Z,4.40
2019-05-06T18:47:05.148Z,5.95
2019-05-06T18:49:34.738Z,5.30
2019-05-06T18:52:04.289Z,5.92
2019-05-06T18:54:34.131Z,3.62
2019-05-06T18:57:04.988Z,6.30
2019-05-06T18:59:36.932Z,5.08
2019-05-06T19:02:06.105Z,3.40
2019-05-06T19:04:52.143Z,3.98
2019-05-06T19:07:22.059Z,2.87
2019-05-06T19:10:15.661Z,5.72
2019-05-06T19:12:45.198Z,5.42
2019-05-06T19:15:14.955Z,4.45
2019-05-06T19:17:44.520Z,3.05
2019-05-06T19:20:14.538Z,5.22
2019-05-06T19:22:44.007Z,7.85
2019-05-06T19:25:14.663Z,2.87
2019-05-06T19:27:50.151Z,4.97
2019-05-06T19:30:19.936Z,3.45
2019-05-06T19:32:49.505Z,5.80
2019-05-06T19:35:19.105Z,6.40
2019-05-06T19:37:48.679Z,6.45
2019-05-06T19:40:18.187Z,12.28
2019-05-06T19:42:50.206Z,9.78
2019-05-06T19:45:19.307Z,6.90
2019-05-06T19:47:48.819Z,24.63
2019-05-06T19:50:21.128Z,16.37
2019-05-06T19:52:52.798Z,9.05
2019-05-06T19:55:23.103Z,7.62
2019-05-06T19:57:52.773Z,14.95
2019-05-06T20:00:22.925Z,16.25
2019-05-06T20:02:52.635Z,7.50
2019-05-06T20:05:47.031Z,10.15
2019-05-06T20:08:38.606Z,7.42
2019-05-06T20:11:16.188Z,7.50
2019-05-06T20:13:45.692Z,7.67
2019-05-06T20:16:15.226Z,4.25
2019-05-06T20:18:44.892Z,7.17
2019-05-06T20:21:14.387Z,8.25
2019-05-06T20:23:44.436Z,9.58
2019-05-06T20:26:13.971Z,9.53
2019-05-06T20:28:43.478Z,7.78
2019-05-06T20:31:15.407Z,8.28
2019-05-06T20:33:44.944Z,6.25
2019-05-06T20:36:14.493Z,10.50
2019-05-06T20:38:44.058Z,9.03
2019-05-06T20:41:16.838Z,14.30
2019-05-06T20:43:46.586Z,14.45
2019-05-06T20:46:16.132Z,7.17
2019-05-06T20:48:45.712Z,9.35
2019-05-06T20:51:16.212Z,9.53
2019-05-06T20:53:45.782Z,6.45
2019-05-06T20:56:15.397Z,5.85
2019-05-06T20:58:45.154Z,10.05
2019-05-06T21:01:14.812Z,6.55
2019-05-06T21:03:44.337Z,5.70
2019-05-06T21:06:13.995Z,9.53
2019-05-06T21:08:43.583Z,6.75
2019-05-06T21:11:25.875Z,3.25
2019-05-06T21:13:44.612Z,4.15
2019-05-06T21:16:14.250Z,12.95
2019-05-06T21:18:42.581Z,8.85
2019-05-06T21:21:10.900Z,11.35
2019-05-06T21:23:42.757Z,5.70
2019-05-06T21:26:13.664Z,10.32
2019-05-06T21:28:46.262Z,13.93
2019-05-06T21:31:16.166Z,5.97
2019-05-06T21:33:45.740Z,8.30
2019-05-06T21:36:15.255Z,8.08
2019-05-06T21:38:44.775Z,7.62
2019-05-06T21:41:17.465Z,9.05
2019-05-06T21:43:49.672Z,8.05
2019-05-06T21:46:16.825Z,8.93
2019-05-06T21:48:46.284Z,9.08
2019-05-06T21:51:15.822Z,6.25
2019-05-06T21:53:45.381Z,9.30
2019-05-06T21:56:15.270Z,4.08
2019-05-06T21:58:44.796Z,9.43
2019-05-06T22:01:14.533Z,6.33
2019-05-06T22:03:44.117Z,7.37
2019-05-06T22:06:13.821Z,13.65
2019-05-06T22:08:43.305Z,6.95
2019-05-06T22:11:12.802Z,7.30
2019-05-06T22:13:42.700Z,4.33
2019-05-06T22:16:12.630Z,5.78
2019-05-06T22:18:43.216Z,6.62
2019-05-06T22:21:25.232Z,6.22
2019-05-06T22:23:56.868Z,6.05
2019-05-06T22:26:27.167Z,9.75
2019-05-06T22:28:56.902Z,3.00
2019-05-06T22:31:27.130Z,5.15
2019-05-06T22:33:56.736Z,3.50
2019-05-06T22:36:26.218Z,5.78
2019-05-06T22:38:55.844Z,4.53
2019-05-06T22:41:25.618Z,4.83
2019-05-06T22:43:55.203Z,4.42
2019-05-06T22:46:24.875Z,4.62
2019-05-06T22:48:54.810Z,24.90
2019-05-06T22:51:24.804Z,11.00
2019-05-06T22:53:54.322Z,10.28
2019-05-06T22:56:23.793Z,3.47
2019-05-06T22:58:53.237Z,5.17
2019-05-06T23:01:44.122Z,6.90
2019-05-06T23:04:14.772Z,4.92
2019-05-06T23:06:44.295Z,6.20
2019-05-06T23:09:13.941Z,4.47
2019-05-06T23:11:43.384Z,3.08
2019-05-06T23:14:27.047Z,3.45
2019-05-06T23:16:44.342Z,4.83
2019-05-06T23:19:13.755Z,7.00
2019-05-06T23:21:43.334Z,4.30
2019-05-06T23:24:13.262Z,3.10
2019-05-06T23:26:42.940Z,3.12
2019-05-06T23:29:13.050Z,1.65
2019-05-06T23:31:42.757Z,4.58
2019-05-06T23:34:12.664Z,3.15
2019-05-06T23:37:25.581Z,4.67
2019-05-06T23:40:42.751Z,1.87
2019-05-06T23:43:47.710Z,2.72
2019-05-06T23:46:53.060Z,4.25
2019-05-06T23:49:58.528Z,1.52
2019-05-06T23:53:03.723Z,3.22
2019-05-06T23:56:09.069Z,1.82
2019-05-06T23:58:38.594Z,2.47
